Time;durP1;ratioP1;P1;durP2;ratioP2;P2;SDS_P1;SDS_P2;PMS_P1;PMS_P2;Temp;Humidity;BMP_temperature;BMP_pressure;BME280_temperature;BME280_humidity;BME280_pressure;Samples;Min_cycle;Max_cycle;Signal;HPM_P1;HPM_P2
2022/05/22 00:00:34;;;;;;;;;;;;;;;;;;5051965;28;19951;-51
2022/05/22 00:03:00;;;;;;;;;;;;;;;;;;5052423;28;20075;-47
2022/05/22 00:05:27;;;;;;;;;;;;;;;;;;5052026;28;20006;-52
2022/05/22 00:07:53;;;;;;;;;;;;;;;;;;5052141;28;20360;-51
2022/05/22 00:10:20;;;;;;;;;;;;;;;;;;5052473;28;19927;-54
2022/05/22 00:12:46;;;;;;;;;;;;;;;;;;5051930;28;19959;-45
2022/05/22 00:15:13;;;;;;;;;;;;;;;;;;5052103;28;20317;-40
2022/05/22 00:17:40;;;;;;;;;;;;;;;;;;5051823;28;20280;-58
2022/05/22 00:20:06;;;;;;;;;;;;;;;;;;5052225;28;19919;-52
2022/05/22 00:22:33;;;;;;;;;;;;;;;;;;5052190;28;19945;-52
2022/05/22 00:24:59;;;;;;;;;;;;;;;;;;5052199;28;19909;-49
2022/05/22 00:27:26;;;;;;;;;;;;;;;;;;5051556;28;20283;-55
2022/05/22 00:29:53;;;;;;;;;;;;;;;;;;5051814;28;19917;-50
2022/05/22 00:32:20;;;;;;;;;;;;;;;;;;5051720;28;19908;-52
2022/05/22 00:34:46;;;;;;;;;;;;;;;;;;5051658;28;20353;-48
2022/05/22 00:37:13;;;;;;;;;;;;;;;;;;5052052;28;19909;-50
2022/05/22 00:39:39;;;;;;;;;;;;;;;;;;5051485;28;20314;-52
2022/05/22 00:42:06;;;;;;;;;;;;;;;;;;5051891;28;19916;-50
2022/05/22 00:44:32;;;;;;;;;;;;;;;;;;5051487;28;19920;-53
2022/05/22 00:46:59;;;;;;;;;;;;;;;;;;5051561;28;19909;-50
2022/05/22 00:49:25;;;;;;;;;;;;;;;;;;5051238;28;20014;-53
2022/05/22 00:51:52;;;;;;;;;;;;;;;;;;5051821;28;19912;-51
2022/05/22 00:54:18;;;;;;;;;;;;;;;;;;5051492;28;19908;-51
2022/05/22 00:56:45;;;;;;;;;;;;;;;;;;5051634;28;19919;-50
2022/05/22 00:59:11;;;;;;;;;;;;;;;;;;5051711;28;19916;-54
2022/05/22 01:01:38;;;;;;;;;;;;;;;;;;5051228;28;19952;-53
2022/05/22 01:04:04;;;;;;;;;;;;;;;;;;5050628;28;20393;-55
2022/05/22 01:06:31;;;;;;;;;;;;;;;;;;5051262;28;19915;-53
2022/05/22 01:08:57;;;;;;;;;;;;;;;;;;5051732;28;19924;-60
2022/05/22 01:11:24;;;;;;;;;;;;;;;;;;5051164;28;19916;-54
2022/05/22 01:13:52;;;;;;;;;;;;;;;;;;5051029;28;19944;-55
2022/05/22 01:16:18;;;;;;;;;;;;;;;;;;5066566;28;20306;-53
2022/05/22 01:18:45;;;;;;;;;;;;;;;;;;5072136;28;20260;-57
2022/05/22 01:21:12;;;;;;;;;;;;;;;;;;5074097;28;20269;-56
2022/05/22 01:23:39;;;;;;;;;;;;;;;;;;5074676;28;19954;-49
2022/05/22 01:26:05;;;;;;;;;;;;;;;;;;5074809;28;20347;-59
2022/05/22 01:28:31;;;;;;;;;;;;;;;;;;5074503;28;20436;-52
2022/05/22 01:31:00;;;;;;;;;;;;;;;;;;5075245;28;20278;-59
2022/05/22 01:33:26;;;;;;;;;;;;;;;;;;5074735;28;19909;-51
2022/05/22 01:35:53;;;;;;;;;;;;;;;;;;5074525;28;19919;-55
2022/05/22 01:38:20;;;;;;;;;;;;;;;;;;5070749;28;19908;-45
2022/05/22 01:40:46;;;;;;;;;;;;;;;;;;5053295;28;20393;-55
2022/05/22 01:43:13;;;;;;;;;;;;;;;;;;5051952;28;19913;-47
2022/05/22 01:45:39;;;;;;;;;;;;;;;;;;5053373;28;19913;-47
2022/05/22 01:48:06;;;;;;;;;;;;;;;;;;5051559;28;20376;-44
2022/05/22 01:50:32;;;;;;;;;;;;;;;;;;5052127;28;20399;-50
2022/05/22 01:52:59;;;;;;;;;;;;;;;;;;5052382;28;19916;-48
2022/05/22 01:55:27;;;;;;;;;;;;;;;;;;5049338;28;19909;-56
2022/05/22 01:57:53;;;;;;;;;;;;;;;;;;5051902;28;19909;-53
2022/05/22 02:00:20;;;;;;;;;;;;;;;;;;5052186;28;19909;-49
2022/05/22 02:02:46;;;;;;;;;;;;;;;;;;5051750;28;20648;-53
2022/05/22 02:05:13;;;;;;;;;;;;;;;;;;5049850;28;19975;-52
2022/05/22 02:10:24;;;;;;;;;;;;;;;;;;5053975;28;20011;-56
2022/05/22 02:12:51;;;;;;;;;;;;;;;;;;5053069;28;19969;-54
2022/05/22 02:15:18;;;;;;;;;;;;;;;;;;5053984;28;19915;-52
2022/05/22 02:17:44;;;;;;;;;;;;;;;;;;5050683;28;19920;-54
2022/05/22 02:20:11;;;;;;;;;;;;;;;;;;5052084;28;19913;-56
2022/05/22 02:22:37;;;;;;;;;;;;;;;;;;5051854;28;20027;-56
2022/05/22 02:25:04;;;;;;;;;;;;;;;;;;5051080;28;19909;-48
2022/05/22 02:27:30;;;;;;;;;;;;;;;;;;5050813;28;19916;-45
2022/05/22 02:29:57;;;;;;;;;;;;;;;;;;5053459;28;19923;-44
2022/05/22 02:32:23;;;;;;;;;;;;;;;;;;5053826;28;19909;-53
2022/05/22 02:34:49;;;;;;;;;;;;;;;;;;5053622;28;19912;-56
2022/05/22 02:37:16;;;;;;;;;;;;;;;;;;5053740;28;19909;-49
2022/05/22 02:39:42;;;;;;;;;;;;;;;;;;5053378;28;19912;-59
2022/05/22 02:42:09;;;;;;;;;;;;;;;;;;5052149;28;19916;-43
2022/05/22 02:44:35;;;;;;;;;;;;;;;;;;5049204;28;19928;-56
2022/05/22 02:47:02;;;;;;;;;;;;;;;;;;5051173;28;19909;-45
2022/05/22 02:49:28;;;;;;;;;;;;;;;;;;5052412;28;19952;-51
2022/05/22 02:51:55;;;;;;;;;;;;;;;;;;5048675;28;19931;-53
2022/05/22 02:54:24;;;;;;;;;;;;;;;;;;5048700;28;19912;-44
2022/05/22 02:56:51;;;;;;;;;;;;;;;;;;5050805;28;20299;-49
2022/05/22 02:59:17;;;;;;;;;;;;;;;;;;5050866;28;19920;-51
2022/05/22 03:01:44;;;;;;;;;;;;;;;;;;5048490;28;20390;-50
2022/05/22 03:04:10;;;;;;;;;;;;;;;;;;5050735;28;20356;-52
2022/05/22 03:06:40;;;;;;;;;;;;;;;;;;5050071;28;20348;-48
2022/05/22 03:09:06;;;;;;;;;;;;;;;;;;5050589;28;19913;-53
2022/05/22 03:11:33;;;;;;;;;;;;;;;;;;5053181;28;20066;-56
2022/05/22 03:13:59;;;;;;;;;;;;;;;;;;5053377;28;19952;-50
2022/05/22 03:16:25;;;;;;;;;;;;;;;;;;5053177;28;19915;-57
2022/05/22 03:18:52;;;;;;;;;;;;;;;;;;5053251;28;19913;-56
2022/05/22 03:21:18;;;;;;;;;;;;;;;;;;5053131;28;20002;-49
2022/05/22 03:23:45;;;;;;;;;;;;;;;;;;5052939;28;19919;-55
2022/05/22 03:26:11;;;;;;;;;;;;;;;;;;5052252;28;19999;-52
2022/05/22 03:28:38;;;;;;;;;;;;;;;;;;5052552;28;19913;-51
2022/05/22 03:31:04;;;;;;;;;;;;;;;;;;5053300;28;20368;-47
2022/05/22 03:33:31;;;;;;;;;;;;;;;;;;5053176;28;20270;-49
2022/05/22 03:35:57;;;;;;;;;;;;;;;;;;5052157;28;19912;-49
2022/05/22 03:38:25;;;;;;;;;;;;;;;;;;5051862;28;19916;-52
2022/05/22 03:40:52;;;;;;;;;;;;;;;;;;5051307;28;19915;-50
2022/05/22 03:43:18;;;;;;;;;;;;;;;;;;5052401;28;19995;-50
2022/05/22 03:45:45;;;;;;;;;;;;;;;;;;5052454;28;19909;-51
2022/05/22 03:48:11;;;;;;;;;;;;;;;;;;5052006;28;19909;-43
2022/05/22 03:50:38;;;;;;;;;;;;;;;;;;5051689;28;19924;-47
2022/05/22 03:53:04;;;;;;;;;;;;;;;;;;5052524;28;20005;-48
2022/05/22 03:55:30;;;;;;;;;;;;;;;;;;5051753;28;19908;-53
2022/05/22 03:57:58;;;;;;;;;;;;;;;;;;5052088;28;20268;-52
2022/05/22 04:00:24;;;;;;;;;;;;;;;;;;5052208;28;19909;-50
2022/05/22 04:02:51;;;;;;;;;;;;;;;;;;5051709;28;19909;-52
2022/05/22 04:05:17;;;;;;;;;;;;;;;;;;5051821;28;19909;-49
2022/05/22 04:07:44;;;;;;;;;;;;;;;;;;5050967;28;19909;-52
2022/05/22 04:10:10;;;;;;;;;;;;;;;;;;5051743;28;19935;-56
2022/05/22 04:12:37;;;;;;;;;;;;;;;;;;5051769;28;19913;-52
2022/05/22 04:15:04;;;;;;;;;;;;;;;;;;5052410;28;19916;-48
2022/05/22 04:17:30;;;;;;;;;;;;;;;;;;5051972;28;20035;-49
2022/05/22 04:19:57;;;;;;;;;;;;;;;;;;5052260;28;20240;-47
2022/05/22 04:22:23;;;;;;;;;;;;;;;;;;5051797;28;20363;-55
2022/05/22 04:27:34;;;;;;;;;;;;;;;;;;5051684;28;19915;-43
2022/05/22 04:30:00;;;;;;;;;;;;;;;;;;5051806;28;19940;-51
2022/05/22 04:32:27;;;;;;;;;;;;;;;;;;5052161;28;19909;-52
2022/05/22 04:34:53;;;;;;;;;;;;;;;;;;5051682;28;19940;-61
2022/05/22 04:37:20;;;;;;;;;;;;;;;;;;5051417;28;19908;-55
2022/05/22 04:39:46;;;;;;;;;;;;;;;;;;5051703;28;19959;-48
2022/05/22 04:42:13;;;;;;;;;;;;;;;;;;5051920;28;19920;-54
2022/05/22 04:44:39;;;;;;;;;;;;;;;;;;5050207;28;19909;-51
2022/05/22 04:47:05;;;;;;;;;;;;;;;;;;5051797;28;19909;-49
2022/05/22 04:49:32;;;;;;;;;;;;;;;;;;5051446;28;19924;-46
2022/05/22 04:51:58;;;;;;;;;;;;;;;;;;5051442;28;19920;-51
2022/05/22 04:54:25;;;;;;;;;;;;;;;;;;5053792;28;20284;-52
2022/05/22 04:56:52;;;;;;;;;;;;;;;;;;5055413;28;19990;-50
2022/05/22 04:59:18;;;;;;;;;;;;;;;;;;5055717;28;19951;-51
2022/05/22 05:01:45;;;;;;;;;;;;;;;;;;5055949;28;19912;-49
2022/05/22 05:04:14;;;;;;;;;;;;;;;;;;5055933;28;19908;-51
2022/05/22 05:06:41;;;;;;;;;;;;;;;;;;5055550;28;20276;-57
2022/05/22 05:09:07;;;;;;;;;;;;;;;;;;5050808;28;20358;-55
2022/05/22 05:11:34;;;;;;;;;;;;;;;;;;5053941;28;20272;-51
2022/05/22 05:14:00;;;;;;;;;;;;;;;;;;5052985;28;20409;-54
2022/05/22 05:16:27;;;;;;;;;;;;;;;;;;5055626;28;19948;-44
2022/05/22 05:18:53;;;;;;;;;;;;;;;;;;5052868;28;20691;-54
2022/05/22 05:21:19;;;;;;;;;;;;;;;;;;5050382;28;19912;-60
2022/05/22 05:23:46;;;;;;;;;;;;;;;;;;5053010;28;20001;-56
2022/05/22 05:26:13;;;;;;;;;;;;;;;;;;5052251;28;19996;-50
2022/05/22 05:28:39;;;;;;;;;;;;;;;;;;5053677;28;19966;-56
2022/05/22 05:31:06;;;;;;;;;;;;;;;;;;5050601;28;20016;-55
2022/05/22 05:33:32;;;;;;;;;;;;;;;;;;5053048;28;20314;-51
2022/05/22 05:35:59;;;;;;;;;;;;;;;;;;5052561;28;19908;-49
2022/05/22 05:38:25;;;;;;;;;;;;;;;;;;5052558;28;19924;-52
2022/05/22 05:40:52;;;;;;;;;;;;;;;;;;5049115;28;20352;-50
2022/05/22 05:43:19;;;;;;;;;;;;;;;;;;5050578;28;19988;-50
2022/05/22 05:45:46;;;;;;;;;;;;;;;;;;5052541;28;19916;-55
2022/05/22 05:48:12;;;;;;;;;;;;;;;;;;5052900;28;19921;-49
2022/05/22 05:50:39;;;;;;;;;;;;;;;;;;5049322;28;19931;-49
2022/05/22 05:53:05;;;;;;;;;;;;;;;;;;5051703;28;19916;-48
2022/05/22 05:55:32;;;;;;;;;;;;;;;;;;5052554;28;19923;-50
2022/05/22 05:57:58;;;;;;;;;;;;;;;;;;5052510;28;19908;-52
2022/05/22 06:00:25;;;;;;;;;;;;;;;;;;5051210;28;20263;-45
2022/05/22 06:02:51;;;;;;;;;;;;;;;;;;5051057;28;19943;-57
2022/05/22 06:05:18;;;;;;;;;;;;;;;;;;5052632;28;19923;-55
2022/05/22 06:07:44;;;;;;;;;;;;;;;;;;5052509;28;19909;-52
2022/05/22 06:10:11;;;;;;;;;;;;;;;;;;5051263;28;20356;-59
2022/05/22 06:12:38;;;;;;;;;;;;;;;;;;5049445;28;19916;-48
2022/05/22 06:15:04;;;;;;;;;;;;;;;;;;5052253;28;19913;-56
2022/05/22 06:17:31;;;;;;;;;;;;;;;;;;5052575;28;19913;-48
2022/05/22 06:19:57;;;;;;;;;;;;;;;;;;5052289;28;19931;-57
2022/05/22 06:22:24;;;;;;;;;;;;;;;;;;5054280;28;19909;-53
2022/05/22 06:24:50;;;;;;;;;;;;;;;;;;5054127;28;19924;-50
2022/05/22 06:27:16;;;;;;;;;;;;;;;;;;5054652;28;19909;-47
2022/05/22 06:29:43;;;;;;;;;;;;;;;;;;5054400;28;19928;-56
2022/05/22 06:32:09;;;;;;;;;;;;;;;;;;5054691;28;19913;-54
2022/05/22 06:34:36;;;;;;;;;;;;;;;;;;5054227;28;20404;-56
2022/05/22 06:37:03;;;;;;;;;;;;;;;;;;5054498;28;19912;-54
2022/05/22 06:42:13;;;;;;;;;;;;;;;;;;5047719;28;20075;-61
2022/05/22 06:44:40;;;;;;;;;;;;;;;;;;5053726;28;19997;-47
2022/05/22 06:47:07;;;;;;;;;;;;;;;;;;5051406;28;20000;-52
2022/05/22 06:49:33;;;;;;;;;;;;;;;;;;5054516;28;20038;-57
2022/05/22 06:52:00;;;;;;;;;;;;;;;;;;5052312;28;19909;-53
2022/05/22 06:54:30;;;;;;;;;;;;;;;;;;5050690;28;20327;-53
2022/05/22 06:56:56;;;;;;;;;;;;;;;;;;5051518;28;19927;-52
2022/05/22 06:59:23;;;;;;;;;;;;;;;;;;5051214;28;19913;-53
2022/05/22 07:01:49;;;;;;;;;;;;;;;;;;5052260;28;19913;-49
2022/05/22 07:04:16;;;;;;;;;;;;;;;;;;5049174;28;20008;-61
2022/05/22 07:06:42;;;;;;;;;;;;;;;;;;5048120;28;19971;-52
2022/05/22 07:09:08;;;;;;;;;;;;;;;;;;5050520;28;20008;-55
2022/05/22 07:11:38;;;;;;;;;;;;;;;;;;5051429;28;19995;-52
2022/05/22 07:14:05;;;;;;;;;;;;;;;;;;5047596;28;19928;-52
2022/05/22 07:16:34;;;;;;;;;;;;;;;;;;5049724;28;19908;-50
2022/05/22 07:19:01;;;;;;;;;;;;;;;;;;5050773;28;19940;-52
2022/05/22 07:21:27;;;;;;;;;;;;;;;;;;5050314;28;19909;-56
2022/05/22 07:23:54;;;;;;;;;;;;;;;;;;5048209;28;19909;-52
2022/05/22 07:26:21;;;;;;;;;;;;;;;;;;5050330;28;20422;-47
2022/05/22 07:28:48;;;;;;;;;;;;;;;;;;5050423;28;19936;-56
2022/05/22 07:31:14;;;;;;;;;;;;;;;;;;5050656;28;19908;-53
2022/05/22 07:33:41;;;;;;;;;;;;;;;;;;5053114;28;19952;-48
2022/05/22 07:36:07;;;;;;;;;;;;;;;;;;5053198;28;19909;-55
2022/05/22 07:38:34;;;;;;;;;;;;;;;;;;5052431;28;19960;-52
2022/05/22 07:41:00;;;;;;;;;;;;;;;;;;5053135;28;19909;-46
2022/05/22 07:43:27;;;;;;;;;;;;;;;;;;5053275;28;19909;-52
2022/05/22 07:45:56;;;;;;;;;;;;;;;;;;5048941;28;19909;-49
2022/05/22 07:48:23;;;;;;;;;;;;;;;;;;5049732;28;19913;-45
2022/05/22 07:50:49;;;;;;;;;;;;;;;;;;5049976;28;20044;-53
2022/05/22 07:53:16;;;;;;;;;;;;;;;;;;5049771;28;19931;-52
2022/05/22 07:55:42;;;;;;;;;;;;;;;;;;5050315;28;20338;-53
2022/05/22 07:58:09;;;;;;;;;;;;;;;;;;5047416;28;20299;-48
2022/05/22 08:00:35;;;;;;;;;;;;;;;;;;5049633;28;19913;-53
2022/05/22 08:03:02;;;;;;;;;;;;;;;;;;5048753;28;20354;-50
2022/05/22 08:05:28;;;;;;;;;;;;;;;;;;5048955;28;20248;-54
2022/05/22 08:07:54;;;;;;;;;;;;;;;;;;5047083;28;19909;-56
2022/05/22 08:10:21;;;;;;;;;;;;;;;;;;5049795;28;19923;-51
2022/05/22 08:12:47;;;;;;;;;;;;;;;;;;5049632;28;19931;-50
2022/05/22 08:15:14;;;;;;;;;;;;;;;;;;5049509;28;19944;-48
2022/05/22 08:17:40;;;;;;;;;;;;;;;;;;5047468;28;19909;-53
2022/05/22 08:20:07;;;;;;;;;;;;;;;;;;5051325;28;19919;-56
2022/05/22 08:22:33;;;;;;;;;;;;;;;;;;5051905;28;20328;-45
2022/05/22 08:25:00;;;;;;;;;;;;;;;;;;5052204;28;19909;-55
2022/05/22 08:27:27;;;;;;;;;;;;;;;;;;5052151;28;19915;-54
2022/05/22 08:29:54;;;;;;;;;;;;;;;;;;5051783;28;19917;-52
2022/05/22 08:32:20;;;;;;;;;;;;;;;;;;5052575;28;19920;-51
2022/05/22 08:34:47;;;;;;;;;;;;;;;;;;5052073;28;19952;-46
2022/05/22 08:37:13;;;;;;;;;;;;;;;;;;5052142;28;19916;-50
2022/05/22 08:39:40;;;;;;;;;;;;;;;;;;5051967;28;20256;-47
2022/05/22 08:42:06;;;;;;;;;;;;;;;;;;5047484;28;20284;-41
2022/05/22 08:44:32;;;;;;;;;;;;;;;;;;5050951;28;19920;-47
2022/05/22 08:47:01;;;;;;;;;;;;;;;;;;5049542;28;19909;-43
2022/05/22 08:49:28;;;;;;;;;;;;;;;;;;5049455;28;20055;-42
2022/05/22 08:51:55;;;;;;;;;;;;;;;;;;5047396;28;20250;-52
2022/05/22 08:54:21;;;;;;;;;;;;;;;;;;5049416;28;19932;-48
2022/05/22 08:59:32;;;;;;;;;;;;;;;;;;5047225;28;19920;-42
2022/05/22 09:01:59;;;;;;;;;;;;;;;;;;5047239;28;20054;-49
2022/05/22 09:04:25;;;;;;;;;;;;;;;;;;5049203;28;20015;-41
2022/05/22 09:06:52;;;;;;;;;;;;;;;;;;5049411;28;19912;-42
2022/05/22 09:09:18;;;;;;;;;;;;;;;;;;5049071;28;19917;-47
2022/05/22 09:11:44;;;;;;;;;;;;;;;;;;5046269;28;20368;-44
2022/05/22 09:14:11;;;;;;;;;;;;;;;;;;5048660;28;20287;-44
2022/05/22 09:16:37;;;;;;;;;;;;;;;;;;5049422;28;19955;-42
2022/05/22 09:19:04;;;;;;;;;;;;;;;;;;5049429;28;19916;-41
2022/05/22 09:21:31;;;;;;;;;;;;;;;;;;5046801;28;20022;-41
2022/05/22 09:23:57;;;;;;;;;;;;;;;;;;5048170;28;20367;-44
2022/05/22 09:26:24;;;;;;;;;;;;;;;;;;5049307;28;20356;-40
2022/05/22 09:28:50;;;;;;;;;;;;;;;;;;5049518;28;20276;-54
2022/05/22 09:31:17;;;;;;;;;;;;;;;;;;5046128;28;19913;-46
2022/05/22 09:33:43;;;;;;;;;;;;;;;;;;5048625;28;20442;-44
2022/05/22 09:36:10;;;;;;;;;;;;;;;;;;5049132;28;19940;-44
2022/05/22 09:38:36;;;;;;;;;;;;;;;;;;5049722;28;19999;-51
2022/05/22 09:41:03;;;;;;;;;;;;;;;;;;5049079;28;20645;-51
2022/05/22 09:43:29;;;;;;;;;;;;;;;;;;5052172;28;20087;-40
2022/05/22 09:45:55;;;;;;;;;;;;;;;;;;5052879;28;19923;-45
2022/05/22 09:48:22;;;;;;;;;;;;;;;;;;5052858;28;19954;-44
2022/05/22 09:50:48;;;;;;;;;;;;;;;;;;5049281;28;20472;-42
2022/05/22 09:53:18;;;;;;;;;;;;;;;;;;5052345;28;19909;-42
2022/05/22 09:55:44;;;;;;;;;;;;;;;;;;5054238;28;19913;-47
2022/05/22 09:58:11;;;;;;;;;;;;;;;;;;5051982;28;19931;-49
2022/05/22 10:00:37;;;;;;;;;;;;;;;;;;5050964;28;19916;-50
2022/05/22 10:03:04;;;;;;;;;;;;;;;;;;5051562;28;19915;-43
2022/05/22 10:05:30;;;;;;;;;;;;;;;;;;5052226;28;19916;-45
2022/05/22 10:07:57;;;;;;;;;;;;;;;;;;5051718;28;19948;-46
2022/05/22 10:10:23;;;;;;;;;;;;;;;;;;5052449;28;19928;-49
2022/05/22 10:12:49;;;;;;;;;;;;;;;;;;5049012;28;19920;-44
2022/05/22 10:15:17;;;;;;;;;;;;;;;;;;5052359;28;20383;-41
2022/05/22 10:17:44;;;;;;;;;;;;;;;;;;5051775;28;19924;-41
2022/05/22 10:20:10;;;;;;;;;;;;;;;;;;5052255;28;20028;-49
2022/05/22 10:22:37;;;;;;;;;;;;;;;;;;5049401;28;19909;-50
2022/05/22 10:25:03;;;;;;;;;;;;;;;;;;5051886;28;19913;-46
2022/05/22 10:27:29;;;;;;;;;;;;;;;;;;5052048;28;20007;-43
2022/05/22 10:29:56;;;;;;;;;;;;;;;;;;5051918;28;19925;-48
2022/05/22 10:32:22;;;;;;;;;;;;;;;;;;5049252;28;19912;-51
2022/05/22 10:34:49;;;;;;;;;;;;;;;;;;5051298;28;20018;-45
2022/05/22 10:37:15;;;;;;;;;;;;;;;;;;5052740;28;19916;-40
2022/05/22 10:39:42;;;;;;;;;;;;;;;;;;5051530;28;20267;-45
2022/05/22 10:44:53;;;;;;;;;;;;;;;;;;5050369;28;20010;-42
2022/05/22 10:47:20;;;;;;;;;;;;;;;;;;5051958;28;19909;-50
2022/05/22 10:49:46;;;;;;;;;;;;;;;;;;5050023;28;19924;-42
2022/05/22 10:52:12;;;;;;;;;;;;;;;;;;5047447;28;19929;-41
2022/05/22 10:54:39;;;;;;;;;;;;;;;;;;5051646;28;19948;-51
2022/05/22 10:57:05;;;;;;;;;;;;;;;;;;5052121;28;19909;-50
2022/05/22 10:59:32;;;;;;;;;;;;;;;;;;5050881;28;20000;-52
2022/05/22 11:02:00;;;;;;;;;;;;;;;;;;5048959;28;19915;-43
2022/05/22 11:04:27;;;;;;;;;;;;;;;;;;5051565;28;19952;-49
2022/05/22 11:06:53;;;;;;;;;;;;;;;;;;5050363;28;20003;-44
2022/05/22 11:09:20;;;;;;;;;;;;;;;;;;5049845;28;19931;-44
2022/05/22 11:11:46;;;;;;;;;;;;;;;;;;5048463;28;19909;-53
2022/05/22 11:14:13;;;;;;;;;;;;;;;;;;5050898;28;20019;-50
2022/05/22 11:16:40;;;;;;;;;;;;;;;;;;5050361;28;20272;-52
2022/05/22 11:19:06;;;;;;;;;;;;;;;;;;5051129;28;20320;-43
2022/05/22 11:21:33;;;;;;;;;;;;;;;;;;5048546;28;19999;-43
2022/05/22 11:23:59;;;;;;;;;;;;;;;;;;5049241;28;19916;-53
2022/05/22 11:26:25;;;;;;;;;;;;;;;;;;5050621;28;19962;-44
2022/05/22 11:28:52;;;;;;;;;;;;;;;;;;5050705;28;19917;-46
2022/05/22 11:31:18;;;;;;;;;;;;;;;;;;5048665;28;19913;-45
2022/05/22 11:33:46;;;;;;;;;;;;;;;;;;5050018;28;19916;-43
2022/05/22 11:36:12;;;;;;;;;;;;;;;;;;5050800;28;20484;-39
2022/05/22 11:38:39;;;;;;;;;;;;;;;;;;5052201;28;20255;-50
2022/05/22 11:41:05;;;;;;;;;;;;;;;;;;5048406;28;20388;-47
2022/05/22 11:43:32;;;;;;;;;;;;;;;;;;5048664;28;20364;-48
2022/05/22 11:45:58;;;;;;;;;;;;;;;;;;5050406;28;19923;-42
2022/05/22 11:48:25;;;;;;;;;;;;;;;;;;5050592;28;19954;-41
2022/05/22 11:50:51;;;;;;;;;;;;;;;;;;5047908;28;19935;-42
2022/05/22 11:53:17;;;;;;;;;;;;;;;;;;5049608;28;19909;-45
2022/05/22 11:55:44;;;;;;;;;;;;;;;;;;5050215;28;19910;-44
2022/05/22 11:58:10;;;;;;;;;;;;;;;;;;5050471;28;19909;-43
2022/05/22 12:00:37;;;;;;;;;;;;;;;;;;5049029;28;19935;-41
2022/05/22 12:03:03;;;;;;;;;;;;;;;;;;5048644;28;19916;-48
2022/05/22 12:05:30;;;;;;;;;;;;;;;;;;5050038;28;19927;-47
2022/05/22 12:07:56;;;;;;;;;;;;;;;;;;5050037;28;19938;-37
2022/05/22 12:10:23;;;;;;;;;;;;;;;;;;5049588;28;19921;-52
2022/05/22 12:12:50;;;;;;;;;;;;;;;;;;5046828;28;19924;-44
2022/05/22 12:15:16;;;;;;;;;;;;;;;;;;5050111;28;19928;-52
2022/05/22 12:17:43;;;;;;;;;;;;;;;;;;5050205;28;19920;-54
2022/05/22 12:20:10;;;;;;;;;;;;;;;;;;5049566;28;19915;-56
2022/05/22 12:25:21;;;;;;;;;;;;;;;;;;5049271;28;19969;-39
2022/05/22 12:27:48;;;;;;;;;;;;;;;;;;5050115;28;19924;-49
2022/05/22 12:30:14;;;;;;;;;;;;;;;;;;5049852;28;20268;-48
2022/05/22 12:32:41;;;;;;;;;;;;;;;;;;5047451;28;20276;-43
2022/05/22 12:35:07;;;;;;;;;;;;;;;;;;5049490;28;20399;-43
2022/05/22 12:37:34;;;;;;;;;;;;;;;;;;5050337;28;19909;-53
2022/05/22 12:40:00;;;;;;;;;;;;;;;;;;5049862;28;20020;-56
2022/05/22 12:42:27;;;;;;;;;;;;;;;;;;5047475;28;19916;-41
2022/05/22 12:44:54;;;;;;;;;;;;;;;;;;5049827;28;19931;-51
2022/05/22 12:47:20;;;;;;;;;;;;;;;;;;5049786;28;19979;-52
2022/05/22 12:49:47;;;;;;;;;;;;;;;;;;5049474;28;20375;-58
2022/05/22 12:52:13;;;;;;;;;;;;;;;;;;5046710;28;20368;-54
2022/05/22 12:54:39;;;;;;;;;;;;;;;;;;5049987;28;19917;-55
2022/05/22 12:57:06;;;;;;;;;;;;;;;;;;5049755;28;19915;-49
2022/05/22 12:59:32;;;;;;;;;;;;;;;;;;5049539;28;19923;-60
2022/05/22 13:01:59;;;;;;;;;;;;;;;;;;5046924;28;19924;-52
2022/05/22 13:04:25;;;;;;;;;;;;;;;;;;5049749;28;19917;-53
2022/05/22 13:06:52;;;;;;;;;;;;;;;;;;5049100;28;19916;-52
2022/05/22 13:09:18;;;;;;;;;;;;;;;;;;5049702;28;20008;-43
2022/05/22 13:11:45;;;;;;;;;;;;;;;;;;5047039;28;19913;-46
2022/05/22 13:14:11;;;;;;;;;;;;;;;;;;5049707;28;19991;-42
2022/05/22 13:16:38;;;;;;;;;;;;;;;;;;5052213;28;19908;-57
2022/05/22 13:19:04;;;;;;;;;;;;;;;;;;5053163;28;20302;-55
2022/05/22 13:21:31;;;;;;;;;;;;;;;;;;5051379;28;19947;-51
2022/05/22 13:23:57;;;;;;;;;;;;;;;;;;5053274;28;20401;-56
2022/05/22 13:26:24;;;;;;;;;;;;;;;;;;5053497;28;19909;-54
2022/05/22 13:28:50;;;;;;;;;;;;;;;;;;5052612;28;19919;-57
2022/05/22 13:31:17;;;;;;;;;;;;;;;;;;5055487;28;19916;-56
2022/05/22 13:33:43;;;;;;;;;;;;;;;;;;5054453;28;20286;-54
2022/05/22 13:36:10;;;;;;;;;;;;;;;;;;5055586;28;19915;-53
2022/05/22 13:38:38;;;;;;;;;;;;;;;;;;5055566;28;20425;-55
2022/05/22 13:41:06;;;;;;;;;;;;;;;;;;5055906;28;19909;-53
2022/05/22 13:43:32;;;;;;;;;;;;;;;;;;5055626;28;19913;-45
2022/05/22 13:45:59;;;;;;;;;;;;;;;;;;5055882;28;19948;-53
2022/05/22 13:48:25;;;;;;;;;;;;;;;;;;5055234;28;19935;-52
2022/05/22 13:53:36;;;;;;;;;;;;;;;;;;5055658;28;19971;-54
2022/05/22 13:56:03;;;;;;;;;;;;;;;;;;5055468;28;19912;-50
2022/05/22 13:58:29;;;;;;;;;;;;;;;;;;5054984;28;19909;-51
2022/05/22 14:00:56;;;;;;;;;;;;;;;;;;5055340;28;19954;-47
2022/05/22 14:03:23;;;;;;;;;;;;;;;;;;5055458;28;20279;-56
2022/05/22 14:05:49;;;;;;;;;;;;;;;;;;5055252;28;20322;-54
2022/05/22 14:08:15;;;;;;;;;;;;;;;;;;5055073;28;20343;-49
2022/05/22 14:10:42;;;;;;;;;;;;;;;;;;5054738;28;19960;-57
2022/05/22 14:13:09;;;;;;;;;;;;;;;;;;5055125;28;20380;-54
2022/05/22 14:15:35;;;;;;;;;;;;;;;;;;5055124;28;19918;-45
2022/05/22 14:18:03;;;;;;;;;;;;;;;;;;5054841;28;19909;-51
2022/05/22 14:20:30;;;;;;;;;;;;;;;;;;5054749;28;20375;-50
2022/05/22 14:22:56;;;;;;;;;;;;;;;;;;5055023;28;19915;-56
2022/05/22 14:25:23;;;;;;;;;;;;;;;;;;5054903;28;19958;-51
2022/05/22 14:27:49;;;;;;;;;;;;;;;;;;5054650;28;19909;-57
2022/05/22 14:30:16;;;;;;;;;;;;;;;;;;5054661;28;19917;-52
2022/05/22 14:32:43;;;;;;;;;;;;;;;;;;5054222;28;19967;-50
2022/05/22 14:35:09;;;;;;;;;;;;;;;;;;5054795;28;19935;-53
2022/05/22 14:37:36;;;;;;;;;;;;;;;;;;5054542;28;19909;-53
2022/05/22 14:40:02;;;;;;;;;;;;;;;;;;5054698;28;19955;-57
2022/05/22 14:42:28;;;;;;;;;;;;;;;;;;5054490;28;19917;-58
2022/05/22 14:44:55;;;;;;;;;;;;;;;;;;5054270;28;19909;-56
2022/05/22 14:47:21;;;;;;;;;;;;;;;;;;5054460;28;19909;-57
2022/05/22 14:49:48;;;;;;;;;;;;;;;;;;5054132;28;19917;-44
2022/05/22 14:52:14;;;;;;;;;;;;;;;;;;5054206;28;20042;-50
2022/05/22 14:54:41;;;;;;;;;;;;;;;;;;5054120;28;19908;-50
2022/05/22 14:57:08;;;;;;;;;;;;;;;;;;5054252;28;20031;-51
2022/05/22 14:59:34;;;;;;;;;;;;;;;;;;5054039;28;19915;-52
2022/05/22 15:02:01;;;;;;;;;;;;;;;;;;5054116;28;19935;-48
2022/05/22 15:04:27;;;;;;;;;;;;;;;;;;5054107;28;19924;-55
2022/05/22 15:06:54;;;;;;;;;;;;;;;;;;5053810;28;19916;-55
2022/05/22 15:09:20;;;;;;;;;;;;;;;;;;5053840;28;19917;-47
2022/05/22 15:11:48;;;;;;;;;;;;;;;;;;5054090;28;20407;-55
2022/05/22 15:14:20;;;;;;;;;;;;;;;;;;5053938;28;19920;-56
2022/05/22 15:16:46;;;;;;;;;;;;;;;;;;5053631;28;19913;-48
2022/05/22 15:21:57;;;;;;;;;;;;;;;;;;5053927;28;19916;-45
2022/05/22 15:27:08;;;;;;;;;;;;;;;;;;5054069;28;19962;-48
2022/05/22 15:29:36;;;;;;;;;;;;;;;;;;5053490;28;19958;-48
2022/05/22 15:32:02;;;;;;;;;;;;;;;;;;5053804;28;19917;-45
2022/05/22 15:34:29;;;;;;;;;;;;;;;;;;5053450;28;19962;-40
2022/05/22 15:36:55;;;;;;;;;;;;;;;;;;5053266;28;19999;-54
2022/05/22 15:39:22;;;;;;;;;;;;;;;;;;5053202;28;19909;-44
2022/05/22 15:41:49;;;;;;;;;;;;;;;;;;5053508;28;19912;-56
2022/05/22 15:44:15;;;;;;;;;;;;;;;;;;5053583;28;19908;-49
2022/05/22 15:46:42;;;;;;;;;;;;;;;;;;5053020;28;19909;-54
2022/05/22 15:51:53;;;;;;;;;;;;;;;;;;5053353;28;19932;-55
2022/05/22 15:54:19;;;;;;;;;;;;;;;;;;5053301;28;19931;-55
2022/05/22 15:56:46;;;;;;;;;;;;;;;;;;5052910;28;20359;-47
2022/05/22 15:59:12;;;;;;;;;;;;;;;;;;5053245;28;20012;-48
2022/05/22 16:01:39;;;;;;;;;;;;;;;;;;5052925;28;19954;-53
2022/05/22 16:04:05;;;;;;;;;;;;;;;;;;5053299;28;20042;-49
2022/05/22 16:06:31;;;;;;;;;;;;;;;;;;5052621;28;19909;-51
2022/05/22 16:08:58;;;;;;;;;;;;;;;;;;5052717;28;19909;-43
2022/05/22 16:11:24;;;;;;;;;;;;;;;;;;5053114;28;19917;-54
2022/05/22 16:13:51;;;;;;;;;;;;;;;;;;5052842;28;20008;-56
2022/05/22 16:16:17;;;;;;;;;;;;;;;;;;5052802;28;19909;-49
2022/05/22 16:18:44;;;;;;;;;;;;;;;;;;5052400;28;19916;-52
2022/05/22 16:21:10;;;;;;;;;;;;;;;;;;5052756;28;19944;-46
2022/05/22 16:23:37;;;;;;;;;;;;;;;;;;5052988;28;19909;-49
2022/05/22 16:26:06;;;;;;;;;;;;;;;;;;5052773;28;19912;-51
2022/05/22 16:28:32;;;;;;;;;;;;;;;;;;5053281;28;19916;-54
2022/05/22 16:30:59;;;;;;;;;;;;;;;;;;5070941;28;19916;-53
2022/05/22 16:33:25;;;;;;;;;;;;;;;;;;5071486;28;19909;-45
2022/05/22 16:35:52;;;;;;;;;;;;;;;;;;5071830;28;19991;-54
2022/05/22 16:38:19;;;;;;;;;;;;;;;;;;5072671;28;19959;-56
2022/05/22 16:40:46;;;;;;;;;;;;;;;;;;5071920;28;20312;-52
2022/05/22 16:43:12;;;;;;;;;;;;;;;;;;5072600;28;19908;-50
2022/05/22 16:45:39;;;;;;;;;;;;;;;;;;5072611;28;19919;-53
2022/05/22 16:53:35;;;;;;;;;;;;;;;;;;5072708;28;20317;-53
2022/05/22 16:56:01;;;;;;;;;;;;;;;;;;5072708;28;19912;-45
2022/05/22 16:58:28;;;;;;;;;;;;;;;;;;5072714;28;19909;-55
2022/05/22 17:00:55;;;;;;;;;;;;;;;;;;5072345;28;19908;-48
2022/05/22 17:03:21;;;;;;;;;;;;;;;;;;5072574;28;20428;-53
2022/05/22 17:05:49;;;;;;;;;;;;;;;;;;5072416;28;19987;-44
2022/05/22 17:08:15;;;;;;;;;;;;;;;;;;5071012;28;20041;-49
2022/05/22 17:10:42;;;;;;;;;;;;;;;;;;5072022;28;19985;-53
2022/05/22 17:13:08;;;;;;;;;;;;;;;;;;5072421;28;19920;-44